フォール=ド=フランス の空港の天気 - METARとTAF

マルティニーク・エメ・セゼール国際空港 ( TFFF / FDF ) - マルティニーク フォール=ド=フランス
飛行場実況気象(Metar)
観測時間03/09 02:00 AST (03/09 06:00 UTC)
風向・風速東 5m/s
視程10km以上
天気現象
少しの雲 雲底高度 1580m
気温25℃
湿度74%
気圧1015hPa
METARTFFF 090600Z AUTO 09009KT 9999 FEW052 25/20 Q1015 TEMPO 4500 SHRA SCT018TCU
過去の天気等 Google飛行場航空写真 Wunderground天気予報

過去48時間のMETAR

飛行場予報(TAF)
発表時間: 3/09 00:00 AST (3/09 04:00 UTC)
予報対象時間: 9日2時 AST ~ 10日2時 AST
風向・風速東 7m/s
視程10km以上
全天の4割程度の雲 雲底高度 910m
9日2時 AST ~ 9日20時 AST に一時的に
視程4500m
天気現象しゅう雨
全天の4割程度の塔状積雲 雲底高度 550m
9日8時 AST ~ 10日2時 AST に一時的に
風向・風速東 8m/s 瞬間風速 15m/s
TAF TFFF 090400Z 0906/1006 09013KT 9999 SCT030
TEMPO 0906/0924 4500 SHRA SCT018TCU
TEMPO 0912/1006 09015G30KT